createdAt,value
2018-01-27T09:32:09.066Z,53.37
2018-01-27T09:34:36.560Z,46.50
2018-01-27T09:37:04.065Z,46.27
2018-01-27T09:39:31.566Z,46.30
2018-01-27T09:41:59.078Z,42.30
2018-01-27T09:44:26.595Z,49.93
2018-01-27T09:46:54.093Z,43.73
2018-01-27T09:49:21.581Z,50.10
2018-01-27T09:51:49.861Z,43.70
2018-01-27T09:54:19.038Z,64.23
2018-01-27T09:56:46.542Z,52.60
2018-01-27T09:59:14.049Z,54.90
2018-01-27T10:01:41.553Z,45.83
2018-01-27T10:04:09.069Z,51.70
2018-01-27T10:06:36.569Z,48.23
2018-01-27T10:09:04.831Z,53.53
2018-01-27T10:11:33.089Z,62.73
2018-01-27T10:14:00.642Z,54.37
2018-01-27T10:16:28.121Z,52.43
2018-01-27T10:18:56.382Z,48.20
2018-01-27T10:21:23.887Z,53.00
2018-01-27T10:23:51.397Z,57.20
2018-01-27T10:26:18.928Z,47.00
2018-01-27T10:28:46.413Z,55.13
2018-01-27T10:31:13.902Z,57.97
2018-01-27T10:33:42.187Z,51.03
2018-01-27T10:36:09.697Z,47.73
2018-01-27T10:38:37.209Z,46.80
2018-01-27T10:41:04.721Z,44.20
2018-01-27T10:43:32.226Z,44.47
2018-01-27T10:45:59.737Z,46.37
2018-01-27T10:48:27.226Z,47.57
2018-01-27T10:50:55.532Z,42.77
2018-01-27T10:53:23.030Z,48.80
2018-01-27T10:55:50.530Z,43.47
2018-01-27T10:58:18.053Z,45.23
2018-01-27T11:00:48.404Z,45.27
2018-01-27T11:03:16.676Z,53.33
2018-01-27T11:05:44.954Z,47.20
2018-01-27T11:08:13.251Z,47.43
2018-01-27T11:10:40.769Z,47.10
2018-01-27T11:13:08.253Z,45.73
2018-01-27T11:15:36.525Z,46.67
2018-01-27T11:18:04.778Z,45.33
2018-01-27T11:20:32.265Z,49.50
2018-01-27T11:23:00.621Z,55.57
2018-01-27T11:25:28.140Z,50.10
2018-01-27T11:27:55.681Z,44.30
2018-01-27T11:30:23.202Z,47.40
2018-01-27T11:32:50.695Z,47.80
2018-01-27T11:35:18.214Z,46.20
2018-01-27T11:37:45.846Z,45.27
2018-01-27T11:40:13.358Z,44.53
2018-01-27T11:42:41.618Z,43.53
2018-01-27T11:45:09.123Z,42.77
2018-01-27T11:47:36.689Z,46.87
2018-01-27T11:50:04.178Z,40.40
2018-01-27T11:52:31.687Z,41.47
2018-01-27T11:54:59.217Z,48.53
2018-01-27T11:57:26.712Z,37.03
2018-01-27T11:59:54.235Z,47.27
2018-01-27T12:02:21.732Z,41.10
2018-01-27T12:04:49.368Z,40.23
2018-01-27T12:07:17.633Z,36.57
2018-01-27T12:09:45.129Z,32.03
2018-01-27T12:12:12.640Z,38.57
2018-01-27T12:14:40.129Z,32.10
2018-01-27T12:17:08.406Z,29.17
2018-01-27T12:19:36.677Z,35.27
2018-01-27T12:22:04.966Z,30.70
2018-01-27T12:24:32.585Z,31.70
2018-01-27T12:27:00.086Z,34.60
2018-01-27T12:29:27.616Z,26.23
2018-01-27T12:31:55.110Z,24.07
2018-01-27T12:34:22.633Z,29.23
2018-01-27T12:36:50.133Z,25.30
2018-01-27T12:39:17.654Z,21.33
2018-01-27T12:41:45.944Z,24.10
2018-01-27T12:44:14.213Z,20.67
2018-01-27T12:46:42.489Z,30.10
2018-01-27T12:49:10.751Z,29.47
2018-01-27T12:51:38.261Z,18.80
2018-01-27T12:54:05.801Z,21.17
2018-01-27T12:56:34.764Z,22.40
2018-01-27T12:59:03.779Z,22.13
2018-01-27T13:01:32.081Z,16.93
2018-01-27T13:03:59.597Z,18.53
2018-01-27T13:06:27.085Z,19.00
2018-01-27T13:08:54.637Z,18.23
2018-01-27T13:11:22.157Z,20.80
2018-01-27T13:13:49.669Z,14.90
2018-01-27T13:16:17.205Z,14.83
2018-01-27T13:18:45.504Z,17.53
2018-01-27T13:21:13.782Z,18.20
2018-01-27T13:23:41.300Z,22.47
2018-01-27T13:26:08.833Z,19.40
2018-01-27T13:28:36.355Z,13.83
2018-01-27T13:31:04.633Z,13.27
2018-01-27T13:33:32.151Z,20.10
2018-01-27T13:35:59.672Z,27.20
